createdAt,value
2022-10-17T00:01:17.562Z,100.00
2022-10-17T00:05:18.940Z,100.00
2022-10-17T00:09:20.294Z,100.00
2022-10-17T00:13:21.794Z,100.00
2022-10-17T00:17:23.161Z,100.00
2022-10-17T00:21:24.876Z,100.00
2022-10-17T00:25:26.552Z,100.00
2022-10-17T00:29:27.866Z,100.00
2022-10-17T00:33:29.576Z,100.00
2022-10-17T00:37:31.477Z,100.00
2022-10-17T00:41:33.447Z,100.00
2022-10-17T00:45:34.806Z,100.00
2022-10-17T00:49:36.840Z,100.00
2022-10-17T00:53:39.306Z,100.00
2022-10-17T00:57:41.340Z,100.00
2022-10-17T01:01:46.874Z,100.00
2022-10-17T01:05:48.266Z,100.00
2022-10-17T01:09:49.856Z,100.00
2022-10-17T01:14:07.274Z,100.00
2022-10-17T01:18:12.964Z,100.00
2022-10-17T01:22:28.128Z,100.00
2022-10-17T01:26:55.899Z,100.00
2022-10-17T01:31:13.481Z,100.00
2022-10-17T01:35:27.764Z,100.00
2022-10-17T01:39:47.960Z,100.00
2022-10-17T01:43:55.688Z,100.00
2022-10-17T01:47:58.694Z,100.00
2022-10-17T01:52:07.025Z,100.00
2022-10-17T01:56:11.092Z,100.00
2022-10-17T02:00:15.502Z,100.00
2022-10-17T02:04:16.964Z,100.00
2022-10-17T02:08:28.901Z,100.00
2022-10-17T02:12:36.460Z,100.00
2022-10-17T02:16:43.261Z,100.00
2022-10-17T02:21:00.921Z,100.00
2022-10-17T02:25:21.404Z,100.00
2022-10-17T02:29:27.259Z,100.00
2022-10-17T02:33:34.531Z,100.00
2022-10-17T02:37:36.353Z,100.00
2022-10-17T02:41:38.622Z,100.00
2022-10-17T02:45:40.340Z,100.00
2022-10-17T02:49:44.348Z,100.00
2022-10-17T02:54:08.512Z,100.00
2022-10-17T02:58:22.178Z,100.00
2022-10-17T03:02:23.485Z,100.00
2022-10-17T03:06:24.744Z,100.00
2022-10-17T03:10:26.687Z,100.00
2022-10-17T03:14:27.932Z,100.00
2022-10-17T03:18:30.031Z,100.00
2022-10-17T03:22:32.001Z,100.00
2022-10-17T03:26:33.588Z,100.00
2022-10-17T03:30:34.864Z,100.00
2022-10-17T03:34:36.271Z,100.00
2022-10-17T03:38:37.980Z,100.00
2022-10-17T03:42:39.372Z,100.00
2022-10-17T03:46:40.617Z,100.00
2022-10-17T03:50:43.141Z,100.00
2022-10-17T03:54:44.488Z,100.00
2022-10-17T03:58:45.840Z,100.00
2022-10-17T04:02:47.109Z,100.00
2022-10-17T04:06:48.451Z,100.00
2022-10-17T04:10:49.691Z,100.00
2022-10-17T04:14:52.185Z,100.00
2022-10-17T04:18:55.199Z,100.00
2022-10-17T04:22:56.885Z,100.00
2022-10-17T04:26:58.149Z,100.00
2022-10-17T04:31:06.648Z,100.00
2022-10-17T04:35:08.198Z,100.00
2022-10-17T04:39:10.249Z,100.00
2022-10-17T04:43:11.561Z,100.00
2022-10-17T04:47:12.853Z,100.00
2022-10-17T04:51:15.304Z,100.00
2022-10-17T04:55:16.586Z,100.00
2022-10-17T04:59:18.942Z,100.00
2022-10-17T05:03:20.616Z,100.00
2022-10-17T05:07:22.152Z,100.00
2022-10-17T05:11:27.649Z,100.00
2022-10-17T05:15:29.058Z,100.00
2022-10-17T05:19:30.372Z,100.00
2022-10-17T05:23:31.685Z,100.00
2022-10-17T05:27:33.113Z,100.00
2022-10-17T05:31:34.425Z,100.00
2022-10-17T05:35:38.844Z,100.00
2022-10-17T05:39:40.564Z,100.00
2022-10-17T05:43:41.842Z,100.00
2022-10-17T05:47:43.248Z,100.00
2022-10-17T05:51:44.588Z,100.00
2022-10-17T05:55:45.832Z,100.00
2022-10-17T05:59:47.114Z,100.00
2022-10-17T06:03:48.380Z,100.00
2022-10-17T06:07:52.405Z,100.00
2022-10-17T06:11:53.804Z,100.00
2022-10-17T06:15:55.335Z,100.00
2022-10-17T06:19:57.332Z,100.00
2022-10-17T06:23:58.637Z,100.00
2022-10-17T06:27:59.969Z,100.00
2022-10-17T06:32:01.450Z,100.00
2022-10-17T06:36:03.604Z,100.00
2022-10-17T06:40:05.256Z,100.00
2022-10-17T06:44:11.016Z,100.00
2022-10-17T06:48:12.523Z,100.00
2022-10-17T06:52:14.685Z,100.00
2022-10-17T06:56:16.344Z,100.00
2022-10-17T07:00:17.723Z,100.00
2022-10-17T07:04:19.057Z,100.00
2022-10-17T07:08:20.525Z,100.00
2022-10-17T07:12:22.345Z,100.00
2022-10-17T07:16:23.687Z,100.00
2022-10-17T07:20:25.501Z,100.00
2022-10-17T07:24:26.862Z,100.00
2022-10-17T07:28:28.946Z,100.00
2022-10-17T07:32:30.238Z,99.89
2022-10-17T07:36:31.665Z,98.68
2022-10-17T07:40:32.916Z,98.15
2022-10-17T07:44:35.428Z,96.83
2022-10-17T07:48:37.080Z,95.87
2022-10-17T07:52:38.386Z,95.03
2022-10-17T07:56:39.756Z,93.96
2022-10-17T08:00:41.235Z,91.69
2022-10-17T08:04:42.625Z,89.74
2022-10-17T08:08:44.751Z,88.57
2022-10-17T08:12:46.084Z,87.60
2022-10-17T08:16:47.366Z,86.25
2022-10-17T08:20:48.654Z,84.32
2022-10-17T08:24:50.030Z,81.86
2022-10-17T08:28:51.490Z,80.70
2022-10-17T08:32:53.297Z,79.99
2022-10-17T08:36:54.655Z,79.21
2022-10-17T08:40:59.926Z,80.34
2022-10-17T08:45:14.631Z,78.13
2022-10-17T08:49:30.746Z,77.87
2022-10-17T08:53:36.810Z,75.04
2022-10-17T08:57:38.140Z,74.40
2022-10-17T09:01:59.680Z,72.67
2022-10-17T09:06:25.119Z,72.44
2022-10-17T09:10:26.414Z,72.82
2022-10-17T09:14:44.835Z,71.86
2022-10-17T09:18:48.176Z,71.13
2022-10-17T09:22:50.107Z,69.76
2022-10-17T09:26:52.622Z,70.06
2022-10-17T09:31:02.161Z,69.07
2022-10-17T09:35:03.759Z,68.68
2022-10-17T09:39:07.568Z,68.43
2022-10-17T09:43:11.319Z,69.75
2022-10-17T09:47:12.558Z,69.73
2022-10-17T09:51:15.098Z,69.07
2022-10-17T09:55:29.579Z,69.10
2022-10-17T09:59:41.699Z,68.52
2022-10-17T10:03:43.117Z,68.07
2022-10-17T10:07:59.653Z,66.92
2022-10-17T10:12:03.242Z,66.78
2022-10-17T10:16:24.150Z,66.88
2022-10-17T10:20:25.449Z,67.16
2022-10-17T10:24:30.779Z,67.99
2022-10-17T10:28:36.364Z,66.71
2022-10-17T10:32:37.811Z,64.90
2022-10-17T10:36:47.778Z,66.29
2022-10-17T10:40:54.300Z,65.30
2022-10-17T10:44:59.712Z,65.68
2022-10-17T10:49:01.761Z,65.64
2022-10-17T10:53:10.021Z,64.65
2022-10-17T10:57:19.844Z,65.54
2022-10-17T11:01:21.189Z,64.61
2022-10-17T11:05:34.886Z,66.18
2022-10-17T11:09:45.018Z,65.03
2022-10-17T11:14:00.413Z,64.42
2022-10-17T11:18:20.686Z,63.95
2022-10-17T11:22:31.397Z,62.32
2022-10-17T11:26:35.909Z,61.80
2022-10-17T11:34:53.678Z,62.43
2022-10-17T11:38:54.937Z,63.48
2022-10-17T11:43:00.683Z,61.90
2022-10-17T11:47:10.537Z,61.93
2022-10-17T11:55:38.182Z,61.54
2022-10-17T11:59:59.388Z,61.82
2022-10-17T12:04:19.477Z,63.03
2022-10-17T12:08:29.208Z,63.74
2022-10-17T12:12:34.211Z,62.25
2022-10-17T12:16:35.586Z,63.27
2022-10-17T12:20:37.421Z,61.18
2022-10-17T12:24:41.257Z,60.94
2022-10-17T12:28:46.755Z,61.65
2022-10-17T12:33:06.558Z,61.47
2022-10-17T12:37:11.033Z,61.80
2022-10-17T12:41:12.625Z,62.13
2022-10-17T12:45:32.740Z,62.72
2022-10-17T12:49:37.120Z,62.30
2022-10-17T12:53:41.390Z,62.68
2022-10-17T12:57:42.644Z,63.24
2022-10-17T13:01:46.441Z,63.40
2022-10-17T13:05:49.937Z,63.58
2022-10-17T13:09:51.483Z,64.30
2022-10-17T13:13:56.582Z,64.97
2022-10-17T13:17:59.296Z,65.54
2022-10-17T13:22:06.744Z,64.96
2022-10-17T13:26:17.584Z,65.90
2022-10-17T13:30:21.645Z,66.67
2022-10-17T13:34:24.061Z,65.35
2022-10-17T13:38:27.505Z,64.53
2022-10-17T13:42:36.405Z,65.45
2022-10-17T13:46:39.706Z,67.01
2022-10-17T13:50:45.202Z,66.87
2022-10-17T13:54:48.361Z,68.11
2022-10-17T13:58:51.105Z,69.32
2022-10-17T14:02:52.411Z,70.97
2022-10-17T14:06:53.720Z,69.24
2022-10-17T14:10:55.141Z,69.01
2022-10-17T14:15:12.430Z,70.28
2022-10-17T14:19:26.029Z,71.57
2022-10-17T14:23:32.582Z,72.85
2022-10-17T14:27:39.585Z,74.43
2022-10-17T14:31:41.557Z,75.95
2022-10-17T14:35:50.212Z,76.65
2022-10-17T14:39:51.728Z,74.90
2022-10-17T14:43:54.538Z,75.03
2022-10-17T14:47:59.693Z,75.91
2022-10-17T14:52:25.071Z,78.47
2022-10-17T14:56:27.538Z,77.33
2022-10-17T15:00:28.897Z,76.30
2022-10-17T15:04:30.144Z,75.55
2022-10-17T15:08:31.488Z,76.24
2022-10-17T15:12:32.954Z,77.64
2022-10-17T15:16:37.164Z,79.23
2022-10-17T15:20:39.193Z,81.03
2022-10-17T15:24:40.584Z,80.94
2022-10-17T15:28:41.938Z,82.93
2022-10-17T15:32:43.346Z,83.95
2022-10-17T15:36:48.760Z,85.04
2022-10-17T15:40:51.881Z,85.14
2022-10-17T15:44:53.229Z,85.54
2022-10-17T15:48:55.177Z,85.04
2022-10-17T15:52:56.557Z,85.97
2022-10-17T15:56:57.900Z,87.26
2022-10-17T16:00:59.341Z,87.96
2022-10-17T16:05:00.775Z,88.94
2022-10-17T16:09:02.076Z,89.67
2022-10-17T16:13:03.423Z,90.57
2022-10-17T16:17:04.833Z,90.95
2022-10-17T16:21:06.572Z,91.22
2022-10-17T16:25:19.209Z,91.83
2022-10-17T16:29:20.537Z,92.52
2022-10-17T16:33:22.009Z,93.10
2022-10-17T16:37:23.731Z,93.71
2022-10-17T16:41:35.617Z,94.51
2022-10-17T16:45:37.057Z,95.06
2022-10-17T16:49:40.475Z,95.35
2022-10-17T16:53:45.222Z,95.51
2022-10-17T16:57:48.446Z,95.86
2022-10-17T17:01:50.119Z,96.14
2022-10-17T17:05:51.921Z,96.47
2022-10-17T17:09:53.726Z,96.75
2022-10-17T17:13:56.051Z,97.23
2022-10-17T17:18:00.328Z,97.73
2022-10-17T17:22:04.050Z,97.64
2022-10-17T17:26:08.338Z,98.01
2022-10-17T17:30:10.053Z,98.35
2022-10-17T17:34:14.266Z,98.77
2022-10-17T17:38:18.508Z,99.25
2022-10-17T17:42:19.762Z,99.50
2022-10-17T17:46:21.706Z,100.00
2022-10-17T17:50:23.017Z,100.00
2022-10-17T17:54:24.301Z,100.00
2022-10-17T17:58:25.761Z,100.00
2022-10-17T18:02:27.080Z,100.00
2022-10-17T18:06:29.039Z,100.00
2022-10-17T18:10:30.340Z,100.00
2022-10-17T18:14:31.873Z,100.00
2022-10-17T18:18:33.275Z,100.00
2022-10-17T18:22:35.680Z,100.00
2022-10-17T18:26:37.018Z,100.00
2022-10-17T18:30:40.273Z,100.00
2022-10-17T18:34:42.020Z,100.00
2022-10-17T18:38:43.535Z,100.00
2022-10-17T18:42:44.789Z,100.00
2022-10-17T18:46:46.874Z,100.00
2022-10-17T18:50:48.216Z,100.00
2022-10-17T18:54:49.505Z,100.00
2022-10-17T18:58:51.217Z,100.00
2022-10-17T19:02:52.507Z,100.00
2022-10-17T19:06:53.941Z,100.00
2022-10-17T19:10:55.273Z,100.00
2022-10-17T19:14:57.286Z,100.00
2022-10-17T19:19:01.729Z,100.00
2022-10-17T19:23:03.151Z,100.00
2022-10-17T19:27:06.732Z,100.00
2022-10-17T19:31:08.449Z,100.00
2022-10-17T19:35:11.421Z,100.00
2022-10-17T19:39:14.612Z,100.00
2022-10-17T19:43:16.072Z,100.00
2022-10-17T19:47:17.325Z,100.00
2022-10-17T19:51:20.892Z,100.00
2022-10-17T19:55:22.271Z,100.00
2022-10-17T20:03:29.781Z,100.00
2022-10-17T20:07:31.120Z,100.00
2022-10-17T20:11:32.453Z,100.00
2022-10-17T20:15:33.796Z,100.00
2022-10-17T20:19:35.042Z,100.00
2022-10-17T20:23:36.828Z,100.00
2022-10-17T20:27:38.197Z,100.00
2022-10-17T20:31:40.348Z,100.00
2022-10-17T20:35:43.045Z,100.00
2022-10-17T20:39:44.620Z,100.00
2022-10-17T20:43:46.105Z,100.00
2022-10-17T20:47:52.311Z,100.00
2022-10-17T20:51:53.969Z,100.00
2022-10-17T20:56:06.004Z,100.00
2022-10-17T21:00:07.755Z,100.00
2022-10-17T21:08:30.638Z,100.00
2022-10-17T21:12:49.966Z,100.00
2022-10-17T21:16:53.871Z,100.00
2022-10-17T21:20:55.173Z,100.00
2022-10-17T21:24:56.852Z,100.00
2022-10-17T21:28:59.617Z,100.00
2022-10-17T21:33:00.902Z,100.00
2022-10-17T21:37:02.486Z,100.00
2022-10-17T21:41:04.712Z,100.00
2022-10-17T21:45:15.205Z,100.00
2022-10-17T21:49:18.578Z,100.00
2022-10-17T21:53:21.009Z,100.00
2022-10-17T21:57:22.327Z,100.00
2022-10-17T22:01:24.950Z,100.00
2022-10-17T22:05:26.316Z,100.00
2022-10-17T22:09:27.815Z,100.00
2022-10-17T22:13:29.137Z,100.00
2022-10-17T22:17:30.663Z,100.00
2022-10-17T22:21:33.404Z,100.00
2022-10-17T22:25:34.967Z,100.00
2022-10-17T22:29:36.320Z,100.00
2022-10-17T22:33:38.569Z,100.00
2022-10-17T22:37:39.829Z,100.00
2022-10-17T22:41:41.127Z,100.00
2022-10-17T22:45:42.381Z,100.00
2022-10-17T22:49:43.965Z,100.00
2022-10-17T22:53:45.254Z,100.00
2022-10-17T22:57:46.561Z,100.00
2022-10-17T23:01:47.913Z,100.00
2022-10-17T23:05:49.477Z,100.00
2022-10-17T23:09:51.083Z,100.00
2022-10-17T23:13:52.612Z,100.00
2022-10-17T23:17:53.972Z,100.00
2022-10-17T23:21:55.280Z,100.00
2022-10-17T23:26:03.321Z,100.00
2022-10-17T23:30:04.971Z,100.00
2022-10-17T23:34:06.618Z,100.00
2022-10-17T23:38:08.181Z,100.00
2022-10-17T23:42:09.448Z,100.00
2022-10-17T23:46:10.792Z,100.00
2022-10-17T23:50:12.137Z,100.00
2022-10-17T23:54:13.856Z,100.00
2022-10-17T23:58:15.124Z,100.00
